Time;durP1;ratioP1;P1;durP2;ratioP2;P2;SDS_P1;SDS_P2;PMS_P1;PMS_P2;Temp;Humidity;BMP_temperature;BMP_pressure;BME280_temperature;BME280_humidity;BME280_pressure;Samples;Min_cycle;Max_cycle;Signal;HPM_P1;HPM_P2
2022/04/10 00:01:07;;;;;;;1.08;0.60;;;17.40;49.90;;;;;;5125641;27;45295;-76
2022/04/10 00:03:35;;;;;;;1.27;0.60;;;17.40;49.70;;;;;;5117914;27;46745;-76
2022/04/10 00:06:02;;;;;;;1.92;0.40;;;17.40;50.00;;;;;;5116206;27;45324;-76
2022/04/10 00:08:29;;;;;;;0.90;0.60;;;17.40;49.40;;;;;;5125176;27;45493;-76
2022/04/10 00:10:56;;;;;;;1.33;0.50;;;17.40;49.80;;;;;;5126650;27;45414;-76
2022/04/10 00:13:22;;;;;;;0.77;0.40;;;17.40;50.20;;;;;;5126338;27;45197;-76
2022/04/10 00:15:49;;;;;;;1.20;0.60;;;17.40;50.40;;;;;;5121237;27;45151;-76
2022/04/10 00:18:16;;;;;;;2.13;0.57;;;17.40;50.40;;;;;;5125199;27;45480;-76
2022/04/10 00:20:44;;;;;;;1.35;0.60;;;17.40;50.30;;;;;;5121897;27;45149;-76
2022/04/10 00:23:11;;;;;;;0.73;0.47;;;17.50;50.30;;;;;;5126594;27;45274;-76
2022/04/10 00:25:38;;;;;;;1.73;0.55;;;17.50;50.20;;;;;;5126131;27;45297;-76
2022/04/10 00:28:05;;;;;;;1.02;0.40;;;17.50;50.10;;;;;;5126978;27;45469;-76
2022/04/10 00:30:32;;;;;;;1.60;0.70;;;17.50;50.20;;;;;;5120729;27;45355;-76
2022/04/10 00:32:59;;;;;;;0.88;0.52;;;17.50;49.90;;;;;;5124307;27;45331;-76
2022/04/10 00:35:26;;;;;;;1.13;0.65;;;17.50;49.90;;;;;;5122251;27;46289;-76
2022/04/10 00:37:54;;;;;;;1.70;0.70;;;17.40;49.70;;;;;;5124268;27;47427;-76
2022/04/10 00:40:21;;;;;;;1.63;0.50;;;17.40;49.50;;;;;;5124268;27;45246;-76
2022/04/10 00:42:50;;;;;;;1.83;0.77;;;17.40;49.70;;;;;;5128350;27;45305;-76
2022/04/10 00:45:17;;;;;;;0.88;0.60;;;17.40;49.50;;;;;;5125572;27;45211;-76
2022/04/10 00:47:45;;;;;;;0.73;0.50;;;17.40;49.70;;;;;;5125410;27;46284;-76
2022/04/10 00:50:14;;;;;;;1.20;0.70;;;17.40;49.60;;;;;;5123779;27;45464;-76
2022/04/10 00:52:42;;;;;;;1.00;0.70;;;17.40;49.20;;;;;;5125024;27;45334;-76
2022/04/10 00:55:11;;;;;;;1.08;0.60;;;17.40;49.50;;;;;;5129579;27;45237;-76
2022/04/10 00:57:39;;;;;;;0.82;0.43;;;17.40;49.30;;;;;;5124327;27;45356;-76
2022/04/10 01:00:09;;;;;;;1.58;0.60;;;17.40;49.30;;;;;;5122484;27;45646;-76
2022/04/10 01:02:36;;;;;;;1.08;0.50;;;17.40;49.80;;;;;;5128504;27;45226;-76
2022/04/10 01:05:03;;;;;;;1.38;0.70;;;17.40;50.00;;;;;;5131428;27;45322;-76
2022/04/10 01:07:30;;;;;;;0.85;0.60;;;17.40;49.80;;;;;;5121127;27;45227;-76
2022/04/10 01:09:57;;;;;;;1.40;0.57;;;17.40;49.90;;;;;;5126381;27;45354;-76
2022/04/10 01:12:25;;;;;;;1.35;0.60;;;17.40;49.80;;;;;;5129374;27;45155;-76
2022/04/10 01:14:52;;;;;;;1.02;0.70;;;17.40;49.70;;;;;;5128127;27;45360;-76
2022/04/10 01:17:20;;;;;;;0.95;0.60;;;17.50;49.90;;;;;;5130187;27;46916;-76
2022/04/10 01:19:46;;;;;;;0.65;0.55;;;17.50;49.80;;;;;;5127809;27;45513;-77
2022/04/10 01:22:27;;;;;;;0.82;0.50;;;17.50;49.60;;;;;;5128657;27;45398;-76
2022/04/10 01:24:54;;;;;;;1.42;0.50;;;17.40;49.30;;;;;;5128516;27;45340;-76
2022/04/10 01:27:21;;;;;;;1.48;0.70;;;17.40;49.30;;;;;;5119339;27;45366;-76
2022/04/10 01:29:47;;;;;;;1.13;0.60;;;17.40;49.60;;;;;;5121088;27;45246;-76
2022/04/10 01:32:14;;;;;;;1.73;0.60;;;17.40;48.90;;;;;;5119385;27;45587;-76
2022/04/10 01:34:42;;;;;;;0.73;0.50;;;17.40;49.10;;;;;;5125403;27;45529;-76
2022/04/10 01:37:09;;;;;;;1.58;0.80;;;17.40;48.50;;;;;;5127972;27;46552;-76
2022/04/10 01:39:38;;;;;;;1.83;0.68;;;17.40;50.10;;;;;;5120382;27;45329;-76
2022/04/10 01:42:05;;;;;;;0.82;0.50;;;17.40;48.90;;;;;;5124780;27;45207;-76
2022/04/10 01:44:41;;;;;;;1.38;0.70;;;17.30;48.50;;;;;;5113667;27;45640;-75
2022/04/10 01:47:08;;;;;;;1.27;0.70;;;17.30;48.70;;;;;;5127653;27;45469;-76
2022/04/10 01:49:35;;;;;;;2.13;0.70;;;17.40;48.70;;;;;;5128201;27;45199;-76
2022/04/10 01:52:02;;;;;;;1.50;0.77;;;17.40;49.20;;;;;;5117581;27;45504;-76
2022/04/10 01:54:28;;;;;;;2.05;0.80;;;17.40;49.70;;;;;;5126202;27;45466;-76
2022/04/10 01:56:56;;;;;;;0.75;0.55;;;17.40;50.80;;;;;;5121479;27;46594;-75
2022/04/10 01:59:23;;;;;;;0.90;0.52;;;17.40;49.40;;;;;;5123825;27;45997;-76
2022/04/10 02:01:50;;;;;;;1.90;0.65;;;17.40;49.10;;;;;;5126461;27;45358;-76
2022/04/10 02:04:18;;;;;;;3.97;0.98;;;17.40;49.20;;;;;;5125463;27;45536;-76
2022/04/10 02:06:45;;;;;;;1.20;0.70;;;17.40;49.40;;;;;;5125622;27;47253;-76
2022/04/10 02:09:12;;;;;;;0.63;0.50;;;17.40;49.30;;;;;;5126129;27;45327;-76
2022/04/10 02:11:39;;;;;;;1.90;0.80;;;17.50;49.10;;;;;;5118303;27;45345;-75
2022/04/10 02:14:07;;;;;;;0.80;0.70;;;17.40;48.90;;;;;;5127530;27;45518;-76
2022/04/10 02:16:34;;;;;;;1.38;0.60;;;17.40;48.80;;;;;;5124875;27;45155;-76
2022/04/10 02:19:01;;;;;;;1.25;0.70;;;17.40;48.80;;;;;;5121657;27;45198;-76
2022/04/10 02:21:28;;;;;;;1.08;0.70;;;17.40;48.70;;;;;;5129117;27;45179;-76
2022/04/10 02:23:55;;;;;;;1.45;0.80;;;17.40;48.80;;;;;;5129239;27;45368;-76
2022/04/10 02:26:21;;;;;;;1.02;0.70;;;17.30;48.60;;;;;;5124657;27;45533;-76
2022/04/10 02:28:48;;;;;;;0.90;0.68;;;17.30;48.40;;;;;;5119519;27;45292;-76
2022/04/10 02:31:16;;;;;;;1.48;0.60;;;17.30;48.40;;;;;;5124430;27;46822;-76
2022/04/10 02:33:43;;;;;;;3.80;0.88;;;17.30;48.20;;;;;;5122602;27;45488;-76
2022/04/10 02:36:10;;;;;;;2.33;1.08;;;17.30;48.20;;;;;;5124109;27;45550;-76
2022/04/10 02:38:36;;;;;;;1.92;0.90;;;17.30;48.40;;;;;;5120650;27;45128;-76
2022/04/10 02:41:03;;;;;;;0.95;0.70;;;17.30;48.70;;;;;;5117763;27;45311;-76
2022/04/10 02:43:30;;;;;;;2.22;0.80;;;17.40;49.10;;;;;;5123253;27;45357;-76
2022/04/10 02:45:57;;;;;;;2.13;0.80;;;17.40;49.10;;;;;;5125016;27;47437;-76
2022/04/10 02:48:25;;;;;;;0.95;0.70;;;17.40;49.00;;;;;;5125393;27;45744;-76
2022/04/10 02:50:52;;;;;;;1.65;0.77;;;17.40;49.00;;;;;;5124959;27;45215;-76
2022/04/10 02:53:19;;;;;;;1.55;0.57;;;17.40;48.80;;;;;;5120489;27;45440;-76
2022/04/10 02:55:45;;;;;;;0.98;0.60;;;17.40;49.00;;;;;;5120428;27;45334;-76
2022/04/10 02:58:12;;;;;;;1.63;0.80;;;17.40;49.00;;;;;;5127896;27;45311;-76
2022/04/10 03:00:39;;;;;;;1.35;0.70;;;17.40;48.80;;;;;;5119996;27;45179;-76
2022/04/10 03:03:06;;;;;;;1.85;0.73;;;17.40;48.90;;;;;;5126017;27;45332;-76
2022/04/10 03:05:34;;;;;;;2.33;0.93;;;17.40;48.60;;;;;;5126063;27;45217;-76
2022/04/10 03:08:01;;;;;;;1.38;0.60;;;17.40;48.60;;;;;;5122149;27;45266;-76
2022/04/10 03:10:28;;;;;;;1.20;0.63;;;17.40;49.00;;;;;;5125301;27;45375;-76
2022/04/10 03:12:54;;;;;;;1.20;0.70;;;17.40;48.60;;;;;;5128206;27;45231;-76
2022/04/10 03:15:21;;;;;;;2.50;0.80;;;17.40;48.40;;;;;;5128899;27;47686;-76
2022/04/10 03:17:48;;;;;;;2.45;0.93;;;17.30;48.50;;;;;;5123821;27;45311;-76
2022/04/10 03:20:15;;;;;;;1.15;0.75;;;17.30;48.20;;;;;;5114032;27;45243;-76
2022/04/10 03:22:43;;;;;;;1.25;0.77;;;17.30;48.10;;;;;;5110501;27;45864;-76
2022/04/10 03:25:10;;;;;;;1.55;0.60;;;17.30;48.40;;;;;;5110506;27;46010;-76
2022/04/10 03:27:37;;;;;;;1.75;0.70;;;17.30;48.00;;;;;;5125418;27;45300;-76
2022/04/10 03:30:04;;;;;;;1.42;0.65;;;17.30;48.40;;;;;;5124861;27;45159;-76
2022/04/10 03:32:31;;;;;;;1.33;0.73;;;17.30;48.90;;;;;;5118282;27;46026;-76
2022/04/10 03:34:58;;;;;;;1.80;0.80;;;17.30;49.00;;;;;;5123591;27;46273;-76
2022/04/10 03:37:25;;;;;;;1.50;0.73;;;17.40;48.90;;;;;;5127085;27;45457;-76
2022/04/10 03:39:53;;;;;;;1.33;0.90;;;17.40;48.80;;;;;;5120158;27;45264;-76
2022/04/10 03:42:19;;;;;;;0.90;0.70;;;17.40;48.80;;;;;;5109883;27;45216;-76
2022/04/10 03:44:46;;;;;;;1.25;0.77;;;17.40;48.80;;;;;;5120650;27;47447;-76
2022/04/10 03:47:13;;;;;;;1.10;0.70;;;17.40;48.80;;;;;;5126691;27;45240;-76
2022/04/10 03:49:40;;;;;;;0.88;0.70;;;17.40;48.80;;;;;;5124875;27;45211;-76
2022/04/10 03:52:07;;;;;;;1.10;0.80;;;17.40;48.70;;;;;;5115410;27;45402;-76
2022/04/10 03:54:34;;;;;;;1.98;0.90;;;17.40;48.50;;;;;;5119377;27;45577;-76
2022/04/10 03:57:02;;;;;;;2.00;0.85;;;17.40;48.50;;;;;;5126565;27;45295;-76
2022/04/10 03:59:28;;;;;;;1.17;0.60;;;17.30;48.40;;;;;;5114626;27;46063;-76
2022/04/10 04:01:55;;;;;;;1.05;0.65;;;17.30;48.40;;;;;;5127628;27;45176;-76
2022/04/10 04:04:22;;;;;;;0.65;0.52;;;17.30;48.50;;;;;;5121716;27;46913;-76
2022/04/10 04:06:49;;;;;;;0.93;0.65;;;17.30;48.30;;;;;;5122801;27;45361;-76
2022/04/10 04:09:16;;;;;;;1.63;0.85;;;17.30;48.30;;;;;;5121876;27;45161;-76
2022/04/10 04:11:42;;;;;;;1.23;0.70;;;17.30;48.40;;;;;;5129418;27;45351;-76
2022/04/10 04:14:12;;;;;;;1.40;0.80;;;17.30;48.30;;;;;;5125338;27;46620;-75
2022/04/10 04:16:38;;;;;;;2.40;0.80;;;17.30;48.20;;;;;;5123761;27;45323;-75
2022/04/10 04:19:05;;;;;;;1.42;0.80;;;17.30;48.60;;;;;;5128858;27;45741;-76
2022/04/10 04:21:32;;;;;;;0.75;0.60;;;17.30;48.90;;;;;;5119399;27;45431;-76
2022/04/10 04:23:59;;;;;;;1.67;0.60;;;17.30;49.10;;;;;;5127643;27;47424;-75
2022/04/10 04:26:26;;;;;;;1.20;0.63;;;17.30;49.00;;;;;;5129613;27;45593;-76
2022/04/10 04:28:52;;;;;;;1.30;0.80;;;17.30;48.80;;;;;;5128747;27;45370;-75
2022/04/10 04:31:20;;;;;;;2.45;0.82;;;17.40;48.90;;;;;;5123259;27;45600;-75
2022/04/10 04:33:47;;;;;;;2.05;0.73;;;17.40;48.90;;;;;;5125396;27;45144;-76
2022/04/10 04:36:14;;;;;;;1.25;0.85;;;17.30;48.60;;;;;;5127713;27;45458;-76
2022/04/10 04:38:41;;;;;;;1.90;0.85;;;17.40;48.70;;;;;;5128253;27;45282;-75
2022/04/10 04:41:10;;;;;;;3.50;0.93;;;17.40;48.60;;;;;;5126710;27;45205;-76
2022/04/10 04:43:37;;;;;;;1.90;0.70;;;17.40;48.10;;;;;;5124627;27;47302;-75
2022/04/10 04:46:03;;;;;;;1.73;0.90;;;17.40;48.30;;;;;;5130250;27;45212;-75
2022/04/10 04:48:31;;;;;;;2.28;0.90;;;17.30;47.70;;;;;;5122164;27;45569;-76
2022/04/10 04:51:00;;;;;;;1.15;0.90;;;17.30;47.70;;;;;;5125712;27;45438;-75
2022/04/10 04:53:27;;;;;;;1.30;0.82;;;17.30;47.90;;;;;;5121924;27;45528;-75
2022/04/10 04:55:54;;;;;;;2.05;0.80;;;17.30;48.50;;;;;;5129611;27;45500;-76
2022/04/10 04:58:20;;;;;;;1.30;0.88;;;17.30;48.70;;;;;;5115614;27;45293;-75
2022/04/10 05:00:47;;;;;;;1.70;1.08;;;17.20;48.20;;;;;;5116882;27;45279;-75
2022/04/10 05:03:16;;;;;;;1.42;0.80;;;17.30;48.30;;;;;;5124131;27;46515;-76
2022/04/10 05:05:45;;;;;;;0.73;0.60;;;17.30;48.10;;;;;;5125647;27;45537;-75
2022/04/10 05:08:11;;;;;;;1.05;0.82;;;17.20;48.20;;;;;;5130723;27;45542;-75
2022/04/10 05:10:38;;;;;;;1.20;0.82;;;17.30;48.90;;;;;;5118225;27;45474;-76
2022/04/10 05:13:07;;;;;;;0.70;0.68;;;17.20;49.00;;;;;;5124752;27;45365;-75
2022/04/10 05:15:34;;;;;;;1.48;0.75;;;17.30;48.70;;;;;;5119127;27;45419;-75
2022/04/10 05:18:01;;;;;;;3.15;0.82;;;17.30;48.80;;;;;;5120049;27;45699;-75
2022/04/10 05:20:28;;;;;;;1.48;0.90;;;17.30;48.60;;;;;;5126263;27;45449;-75
2022/04/10 05:22:56;;;;;;;1.23;0.88;;;17.30;48.60;;;;;;5125751;27;46206;-75
2022/04/10 05:25:23;;;;;;;0.90;0.65;;;17.30;48.70;;;;;;5125120;27;45630;-75
2022/04/10 05:27:50;;;;;;;1.50;0.70;;;17.40;49.70;;;;;;5124433;27;45218;-75
2022/04/10 05:30:17;;;;;;;0.82;0.80;;;17.40;48.60;;;;;;5129255;27;45241;-75
2022/04/10 05:32:44;;;;;;;1.38;0.80;;;17.40;48.50;;;;;;5124830;27;46291;-75
2022/04/10 05:35:11;;;;;;;2.95;0.90;;;17.30;48.50;;;;;;5129040;27;45366;-76
2022/04/10 05:37:39;;;;;;;3.30;0.88;;;17.30;48.40;;;;;;5128108;27;45280;-76
2022/04/10 05:40:08;;;;;;;1.40;0.70;;;17.30;48.30;;;;;;5124215;27;45358;-76
2022/04/10 05:42:39;;;;;;;2.22;0.93;;;17.30;48.10;;;;;;5141790;27;47113;-76
2022/04/10 05:45:06;;;;;;;1.13;0.80;;;17.30;48.00;;;;;;5124118;27;45313;-76
2022/04/10 05:47:33;;;;;;;3.05;1.05;;;17.30;48.30;;;;;;5125748;27;45290;-75
2022/04/10 05:50:00;;;;;;;1.90;0.85;;;17.30;48.20;;;;;;5116583;27;45490;-75
2022/04/10 05:52:27;;;;;;;1.48;0.75;;;17.30;48.50;;;;;;5127819;27;46247;-75
2022/04/10 05:54:53;;;;;;;1.20;0.80;;;17.20;48.10;;;;;;5116814;27;45262;-75
2022/04/10 05:57:22;;;;;;;2.83;1.00;;;17.20;47.70;;;;;;5121269;27;45332;-75
2022/04/10 05:59:48;;;;;;;1.58;0.88;;;17.20;48.10;;;;;;5121776;27;45189;-76
2022/04/10 06:02:15;;;;;;;1.33;0.80;;;17.20;48.10;;;;;;5115662;27;46242;-76
2022/04/10 06:04:42;;;;;;;2.85;1.00;;;17.20;47.70;;;;;;5123471;27;45465;-75
2022/04/10 06:07:09;;;;;;;2.97;1.13;;;17.20;47.60;;;;;;5124853;27;45566;-75
2022/04/10 06:09:36;;;;;;;2.92;1.20;;;17.20;47.60;;;;;;5125373;27;45304;-75
2022/04/10 06:12:02;;;;;;;1.42;1.02;;;17.20;47.40;;;;;;5127160;27;45233;-76
2022/04/10 06:14:30;;;;;;;2.53;1.15;;;17.20;47.40;;;;;;5128209;27;45587;-75
2022/04/10 06:16:57;;;;;;;1.77;0.95;;;17.20;47.30;;;;;;5123236;27;45246;-76
2022/04/10 06:19:24;;;;;;;1.85;1.02;;;17.20;47.20;;;;;;5121603;27;45309;-76
2022/04/10 06:21:51;;;;;;;1.35;0.85;;;17.20;47.20;;;;;;5122480;27;45186;-75
2022/04/10 06:24:20;;;;;;;2.97;0.90;;;17.30;49.70;;;;;;5125971;27;45523;-80
2022/04/10 06:26:49;;;;;;;0.93;0.70;;;17.40;50.20;;;;;;5118576;27;45439;-77
2022/04/10 06:29:16;;;;;;;1.45;0.80;;;17.50;50.00;;;;;;5121843;27;45511;-78
2022/04/10 06:31:44;;;;;;;13.35;1.27;;;17.50;50.30;;;;;;5127590;27;47081;-77
2022/04/10 06:34:11;;;;;;;9.82;1.10;;;17.50;50.00;;;;;;5119542;27;45201;-77
2022/04/10 06:36:38;;;;;;;18.60;1.30;;;17.50;50.40;;;;;;5126427;27;45268;-78
2022/04/10 06:39:05;;;;;;;6.43;1.30;;;17.50;51.00;;;;;;5127129;27;45314;-81
2022/04/10 06:41:32;;;;;;;18.83;1.55;;;17.50;50.70;;;;;;5125322;27;46316;-79
2022/04/10 06:43:59;;;;;;;8.70;1.63;;;17.60;50.50;;;;;;5125409;27;45373;-79
2022/04/10 06:46:26;;;;;;;14.40;1.60;;;17.60;50.90;;;;;;5118006;27;45355;-78
2022/04/10 06:48:54;;;;;;;17.13;1.20;;;17.60;50.90;;;;;;5124198;27;45546;-78
2022/04/10 06:51:22;;;;;;;8.07;1.48;;;17.60;50.80;;;;;;5125522;27;47256;-78
2022/04/10 06:53:49;;;;;;;8.68;2.08;;;17.70;51.30;;;;;;5127433;27;45305;-79
2022/04/10 06:56:16;;;;;;;19.05;1.65;;;17.70;51.90;;;;;;5121531;27;45220;-78
2022/04/10 06:58:43;;;;;;;9.70;1.40;;;17.70;51.90;;;;;;5124756;27;45363;-78
2022/04/10 07:01:10;;;;;;;13.43;1.40;;;17.70;52.00;;;;;;5125652;27;47616;-79
2022/04/10 07:03:37;;;;;;;7.30;1.17;;;17.70;51.90;;;;;;5117184;27;45203;-79
2022/04/10 07:06:05;;;;;;;12.93;1.50;;;17.80;52.00;;;;;;5119908;27;45210;-78
2022/04/10 07:08:33;;;;;;;15.68;2.00;;;17.80;52.00;;;;;;5119309;27;45770;-78
2022/04/10 07:11:00;;;;;;;14.27;1.63;;;17.80;52.90;;;;;;5127581;27;48508;-79
2022/04/10 07:13:28;;;;;;;17.20;1.70;;;17.80;52.50;;;;;;5118694;27;45577;-77
2022/04/10 07:15:54;;;;;;;10.60;1.50;;;17.70;54.10;;;;;;5126120;27;45508;-78
2022/04/10 07:18:21;;;;;;;8.82;1.45;;;17.70;53.60;;;;;;5124999;27;45405;-79
2022/04/10 07:20:48;;;;;;;6.50;1.50;;;17.70;53.10;;;;;;5110778;27;46190;-79
2022/04/10 07:26:01;;;;;;;8.07;1.38;;;17.70;52.90;;;;;;5125246;27;45258;-80
2022/04/10 07:28:28;;;;;;;2.47;1.10;;;17.80;53.10;;;;;;5126832;27;45546;-78
2022/04/10 07:30:55;;;;;;;9.20;1.35;;;17.80;52.90;;;;;;5118600;27;46153;-79
2022/04/10 07:33:22;;;;;;;11.23;1.10;;;17.80;53.30;;;;;;5124392;27;45286;-79
2022/04/10 07:35:49;;;;;;;9.35;1.27;;;17.80;53.20;;;;;;5124309;27;46304;-79
2022/04/10 07:38:18;;;;;;;7.57;1.85;;;17.90;53.50;;;;;;5127326;27;45260;-78
2022/04/10 07:40:45;;;;;;;5.18;1.13;;;17.90;53.70;;;;;;5123712;27;46286;-78
2022/04/10 07:43:11;;;;;;;6.75;1.27;;;17.90;53.30;;;;;;5127828;27;45200;-78
2022/04/10 07:48:23;;;;;;;8.02;1.13;;;17.90;53.60;;;;;;5116631;27;45257;-78
2022/04/10 07:50:50;;;;;;;8.93;1.63;;;17.90;54.10;;;;;;5128068;27;47083;-78
2022/04/10 07:53:18;;;;;;;4.75;1.30;;;17.90;54.40;;;;;;5125133;27;45376;-78
2022/04/10 07:55:45;;;;;;;6.93;1.40;;;18.00;54.30;;;;;;5125264;27;45318;-78
2022/04/10 07:58:12;;;;;;;4.55;1.40;;;18.00;54.00;;;;;;5124951;27;45729;-78
2022/04/10 08:00:39;;;;;;;7.68;1.40;;;18.00;54.10;;;;;;5126795;27;47832;-80
2022/04/10 08:03:06;;;;;;;3.20;1.10;;;18.00;53.80;;;;;;5124894;27;45337;-78
2022/04/10 08:05:33;;;;;;;3.65;1.48;;;18.00;54.40;;;;;;5126250;27;45267;-78
2022/04/10 08:07:59;;;;;;;8.68;1.73;;;18.10;54.40;;;;;;5126244;27;45200;-79
2022/04/10 08:10:29;;;;;;;10.35;1.40;;;18.00;54.40;;;;;;5125282;27;45293;-80
2022/04/10 08:12:58;;;;;;;7.68;1.27;;;18.00;53.60;;;;;;5116351;27;45374;-78
2022/04/10 08:15:26;;;;;;;8.90;1.52;;;18.00;55.10;;;;;;5127851;27;45345;-79
2022/04/10 08:17:53;;;;;;;4.72;1.58;;;18.00;54.00;;;;;;5123255;27;45253;-79
2022/04/10 08:20:20;;;;;;;2.03;1.10;;;18.00;53.90;;;;;;5115662;27;46425;-80
2022/04/10 08:22:50;;;;;;;5.30;1.55;;;18.00;53.80;;;;;;5117150;27;45213;-78
2022/04/10 08:25:17;;;;;;;3.80;1.33;;;18.10;53.80;;;;;;5121784;27;45207;-83
2022/04/10 08:27:45;;;;;;;9.57;1.42;;;18.10;53.30;;;;;;5115008;27;45541;-80
2022/04/10 08:30:12;;;;;;;16.67;1.88;;;18.10;52.90;;;;;;5117429;27;46334;-79
2022/04/10 08:32:42;;;;;;;6.15;1.30;;;18.10;52.80;;;;;;5118961;27;45496;-79
2022/04/10 08:35:10;;;;;;;14.45;2.10;;;18.10;53.00;;;;;;5126146;27;45303;-79
2022/04/10 08:37:37;;;;;;;5.88;1.20;;;18.10;52.30;;;;;;5118968;27;45407;-80
2022/04/10 08:40:05;;;;;;;5.70;1.13;;;18.00;52.20;;;;;;5109713;27;47111;-79
2022/04/10 08:42:32;;;;;;;3.53;1.08;;;17.90;51.40;;;;;;5121966;27;45636;-80
2022/04/10 08:45:02;;;;;;;5.43;1.20;;;17.90;51.00;;;;;;5125698;27;45436;-80
2022/04/10 08:47:30;;;;;;;5.32;1.10;;;17.80;50.80;;;;;;5123884;27;45463;-80
2022/04/10 08:49:58;;;;;;;2.33;1.20;;;17.80;50.60;;;;;;5117189;27;46193;-79
2022/04/10 08:52:25;;;;;;;6.07;1.40;;;17.80;50.30;;;;;;5118797;27;45389;-79
2022/04/10 08:54:51;;;;;;;5.25;1.25;;;17.70;49.00;;;;;;5127589;27;45342;-79
2022/04/10 08:57:18;;;;;;;2.42;1.20;;;17.70;49.90;;;;;;5124398;27;45543;-80
2022/04/10 08:59:45;;;;;;;3.92;1.20;;;17.70;49.40;;;;;;5126959;27;46508;-80
2022/04/10 09:02:13;;;;;;;2.83;1.02;;;17.70;49.00;;;;;;5123664;27;45796;-79
2022/04/10 09:04:41;;;;;;;4.55;1.10;;;17.70;49.20;;;;;;5122347;27;45321;-79
2022/04/10 09:07:08;;;;;;;10.65;1.42;;;17.70;49.30;;;;;;5117179;27;45415;-78
2022/04/10 09:09:37;;;;;;;2.38;0.75;;;17.70;49.40;;;;;;5126886;27;46290;-79
2022/04/10 09:12:04;;;;;;;3.25;1.20;;;17.70;49.60;;;;;;5127832;27;45509;-79
2022/04/10 09:14:36;;;;;;;3.40;0.80;;;17.60;50.40;;;;;;5124047;27;45312;-79
2022/04/10 09:17:11;;;;;;;3.10;0.90;;;17.60;49.30;;;;;;5122972;27;45192;-79
2022/04/10 09:19:41;;;;;;;2.63;0.80;;;17.60;49.60;;;;;;5117727;27;46564;-79
2022/04/10 09:22:28;;;;;;;3.33;0.75;;;17.60;49.80;;;;;;5126286;27;45228;-79
2022/04/10 09:25:07;;;;;;;2.67;0.82;;;17.60;50.60;;;;;;5120350;27;45247;-79
2022/04/10 09:27:35;;;;;;;2.45;0.50;;;17.60;50.60;;;;;;5131080;27;45283;-79
2022/04/10 09:30:03;;;;;;;3.28;0.85;;;17.60;50.50;;;;;;5129814;27;46462;-79
2022/04/10 09:32:44;;;;;;;1.75;0.68;;;17.60;50.00;;;;;;5127320;27;45394;-79
2022/04/10 09:35:13;;;;;;;1.80;1.00;;;17.70;50.00;;;;;;5128105;27;45246;-79
2022/04/10 09:37:45;;;;;;;3.17;0.65;;;17.70;49.80;;;;;;5120738;27;45359;-79
2022/04/10 09:40:23;;;;;;;1.55;0.70;;;17.70;49.60;;;;;;5123977;27;45589;-79
2022/04/10 09:42:50;;;;;;;2.22;0.77;;;17.70;49.30;;;;;;5124614;27;46224;-81
2022/04/10 09:45:27;;;;;;;2.97;0.90;;;17.70;49.40;;;;;;5123674;27;45474;-78
2022/04/10 09:47:54;;;;;;;4.03;0.70;;;17.70;51.50;;;;;;5127219;27;45736;-79
2022/04/10 09:50:32;;;;;;;7.80;0.98;;;17.80;50.90;;;;;;5123830;27;45335;-78
2022/04/10 09:52:58;;;;;;;1.42;0.40;;;17.80;51.90;;;;;;5126862;27;45830;-79
2022/04/10 09:55:36;;;;;;;5.18;1.00;;;17.80;52.00;;;;;;5123543;27;45392;-81
2022/04/10 09:58:07;;;;;;;10.10;1.30;;;17.80;52.00;;;;;;5125456;27;45409;-80
2022/04/10 10:00:39;;;;;;;8.38;1.10;;;17.80;51.40;;;;;;5118829;27;45621;-82
2022/04/10 10:03:08;;;;;;;1.35;0.88;;;17.80;52.00;;;;;;5113815;27;45398;-80
2022/04/10 10:05:37;;;;;;;4.85;1.23;;;17.90;52.20;;;;;;5114206;27;45315;-81
2022/04/10 10:08:05;;;;;;;4.63;1.05;;;17.80;52.00;;;;;;5112911;27;45449;-79
2022/04/10 10:10:33;;;;;;;3.63;0.90;;;17.80;52.00;;;;;;5119921;27;46988;-78
2022/04/10 10:13:03;;;;;;;3.88;0.95;;;17.80;52.00;;;;;;5128026;27;45231;-78
2022/04/10 10:15:30;;;;;;;3.40;0.73;;;17.70;51.90;;;;;;5121994;27;45299;-78
2022/04/10 10:17:57;;;;;;;3.53;0.90;;;17.70;51.90;;;;;;5122070;27;45501;-78
2022/04/10 10:20:24;;;;;;;5.15;0.88;;;17.70;51.90;;;;;;5126839;27;45556;-79
2022/04/10 10:22:52;;;;;;;3.03;0.70;;;17.70;51.90;;;;;;5126854;27;45155;-78
2022/04/10 10:25:27;;;;;;;2.17;0.70;;;17.70;51.90;;;;;;5126463;27;45590;-78
2022/04/10 10:28:36;;;;;;;5.53;0.70;;;17.70;51.90;;;;;;5128404;27;45573;-78
2022/04/10 10:31:18;;;;;;;3.15;0.70;;;17.70;51.30;;;;;;5126041;27;46449;-79
2022/04/10 10:33:50;;;;;;;2.65;0.80;;;17.70;51.10;;;;;;5127483;27;45274;-78
2022/04/10 10:36:23;;;;;;;3.17;0.50;;;17.70;51.10;;;;;;5114887;27;45385;-78
2022/04/10 10:38:53;;;;;;;2.28;0.50;;;17.70;50.70;;;;;;5117455;27;45342;-80
2022/04/10 10:41:37;;;;;;;0.88;0.40;;;17.70;50.30;;;;;;5118918;27;46249;-80
2022/04/10 10:44:41;;;;;;;4.40;0.43;;;17.70;50.80;;;;;;5126781;27;45207;-79
2022/04/10 10:47:17;;;;;;;2.15;0.75;;;17.70;49.20;;;;;;5085870;27;45470;-78
2022/04/10 10:49:45;;;;;;;1.08;0.55;;;17.80;49.50;;;;;;5120190;27;45400;-78
2022/04/10 10:52:14;;;;;;;2.85;0.60;;;17.80;50.20;;;;;;5118275;27;46594;-78
2022/04/10 10:54:45;;;;;;;1.98;0.70;;;17.80;50.00;;;;;;5120940;27;45188;-79
2022/04/10 10:57:27;;;;;;;2.65;0.60;;;17.80;50.30;;;;;;5121812;27;45440;-79
2022/04/10 11:00:04;;;;;;;2.22;0.77;;;17.70;50.10;;;;;;5119066;27;45334;-79
2022/04/10 11:02:34;;;;;;;2.05;0.40;;;17.80;50.20;;;;;;5116652;27;47940;-78
2022/04/10 11:05:01;;;;;;;1.80;0.73;;;17.70;50.00;;;;;;5121471;27;45304;-78
2022/04/10 11:07:28;;;;;;;1.15;0.38;;;17.70;49.90;;;;;;5127608;27;45165;-78
2022/04/10 11:09:59;;;;;;;2.22;0.63;;;17.70;49.60;;;;;;5126081;27;45265;-78
2022/04/10 11:12:31;;;;;;;5.15;0.60;;;17.70;50.10;;;;;;5123027;27;48900;-79
2022/04/10 11:15:01;;;;;;;1.95;0.60;;;17.70;49.90;;;;;;5120905;27;45255;-79
2022/04/10 11:17:29;;;;;;;1.67;0.60;;;17.70;49.60;;;;;;5127020;27;45188;-78
2022/04/10 11:19:59;;;;;;;3.17;0.60;;;17.70;50.00;;;;;;5127111;27;45312;-81
2022/04/10 11:22:31;;;;;;;1.33;0.70;;;17.70;49.60;;;;;;5127619;27;46466;-79
2022/04/10 11:25:04;;;;;;;1.33;0.60;;;17.70;49.80;;;;;;5118076;27;45354;-79
2022/04/10 11:27:42;;;;;;;1.30;0.60;;;17.80;48.60;;;;;;5117011;27;45446;-79
2022/04/10 11:30:11;;;;;;;2.28;0.70;;;17.80;49.60;;;;;;5127315;27;45198;-78
2022/04/10 11:32:46;;;;;;;4.00;0.90;;;17.80;49.10;;;;;;5125594;27;47466;-78
2022/04/10 11:35:24;;;;;;;1.75;0.63;;;17.80;49.20;;;;;;5127110;27;45228;-79
2022/04/10 11:37:53;;;;;;;1.33;0.70;;;17.80;48.90;;;;;;5117505;27;45368;-79
2022/04/10 11:40:27;;;;;;;1.58;0.70;;;17.90;48.90;;;;;;5120642;27;45552;-79
2022/04/10 11:42:55;;;;;;;1.50;0.70;;;17.90;48.80;;;;;;5124065;27;47127;-78
2022/04/10 11:45:23;;;;;;;1.90;0.70;;;17.80;49.10;;;;;;5116091;27;45236;-78
2022/04/10 11:47:50;;;;;;;0.88;0.52;;;17.80;49.20;;;;;;5123277;27;45332;-79
2022/04/10 11:50:18;;;;;;;0.80;0.50;;;17.80;48.70;;;;;;5123379;27;45139;-79
2022/04/10 11:53:02;;;;;;;1.33;0.55;;;17.80;49.60;;;;;;5125475;27;45180;-78
2022/04/10 11:55:35;;;;;;;1.75;0.50;;;17.80;49.40;;;;;;5116899;27;45424;-78
2022/04/10 11:58:12;;;;;;;1.08;0.50;;;17.80;49.50;;;;;;5119909;27;46018;-78
2022/04/10 12:00:45;;;;;;;0.68;0.32;;;17.80;49.50;;;;;;5112829;27;45572;-78
2022/04/10 12:03:12;;;;;;;3.42;0.60;;;17.80;49.50;;;;;;5119249;27;45539;-78
2022/04/10 12:05:39;;;;;;;1.75;0.68;;;17.80;49.50;;;;;;5109752;27;45646;-77
2022/04/10 12:08:06;;;;;;;0.93;0.70;;;17.80;49.60;;;;;;5120001;27;45138;-78
2022/04/10 12:10:34;;;;;;;1.23;0.55;;;17.80;49.90;;;;;;5117044;27;46663;-78
2022/04/10 12:13:03;;;;;;;1.77;0.82;;;17.80;49.60;;;;;;5118057;27;46213;-78
2022/04/10 12:15:29;;;;;;;0.75;0.40;;;17.70;49.70;;;;;;5114562;27;46167;-78
2022/04/10 12:18:08;;;;;;;2.28;0.60;;;17.80;49.90;;;;;;5126084;27;45138;-78
2022/04/10 12:20:36;;;;;;;2.05;0.50;;;17.80;49.70;;;;;;5127259;27;45146;-78
2022/04/10 12:23:15;;;;;;;0.93;0.57;;;17.80;50.10;;;;;;5126934;27;46321;-78
2022/04/10 12:25:44;;;;;;;0.77;0.47;;;17.80;49.90;;;;;;5128494;27;45231;-78
2022/04/10 12:28:11;;;;;;;1.45;0.60;;;17.80;49.50;;;;;;5125258;27;45205;-79
2022/04/10 12:30:38;;;;;;;0.82;0.40;;;17.80;49.70;;;;;;5127485;27;45193;-78
2022/04/10 12:33:05;;;;;;;1.65;0.70;;;17.80;49.80;;;;;;5129928;27;45447;-78
2022/04/10 12:35:37;;;;;;;0.57;0.55;;;17.80;49.80;;;;;;5129984;27;45410;-78
2022/04/10 12:38:04;;;;;;;0.75;0.40;;;17.80;49.50;;;;;;5131908;27;45201;-78
2022/04/10 12:40:31;;;;;;;2.05;0.60;;;17.80;49.80;;;;;;5131413;27;45333;-78
2022/04/10 12:43:01;;;;;;;0.60;0.40;;;17.80;49.80;;;;;;5120943;27;47373;-79
2022/04/10 12:45:30;;;;;;;2.30;0.57;;;17.90;49.60;;;;;;5111171;27;45238;-78
2022/04/10 12:47:57;;;;;;;1.20;0.50;;;17.80;49.40;;;;;;5111383;27;45217;-78
2022/04/10 12:50:25;;;;;;;1.35;0.50;;;17.90;49.90;;;;;;5109891;27;45138;-78
2022/04/10 12:52:55;;;;;;;0.82;0.40;;;17.80;49.90;;;;;;5129389;27;47185;-78
2022/04/10 12:55:23;;;;;;;1.23;0.50;;;17.80;50.00;;;;;;5131681;27;45194;-78
2022/04/10 12:58:00;;;;;;;1.23;0.35;;;17.80;49.80;;;;;;5130569;27;45148;-78